West Case, Maryland
Current Conditions -  °F | °C
As of 12:54 PM on Saturday 25 Oct 2014 (Local Time) from KBWI Reporting Station
Few Clouds Few Clouds  
Wind Chill: 67°   Ceiling: Unl
Heat Index: 67°   Visibility: 10mi
Dew Point: 42°   Wind: 12mph
Humidity: 40%   Direction: 270°W
Pressure: 29.86"   Gusts: 17mph
Location:  39.294°N, 76.6226°W
Report Text: KBWI 251654Z 27010G15KT 10SM FEW250 19/06 A2986 RMK AO2 SLP110 T01940056
Loading
Personal Weather Stations






























Interactive Weather Map
Tropical Storm Tracking
New forecast layout! Learn more

10-Day Weather Forecast

Advertisements
Track Severe Weather on mobile